Latest Weather Observations for Croker Island Airport

IDD60801

Issued at 10:05 pm CST Saturday 22 November 2014 (issued every 30 minutes, with the page automatically refreshed every 10 minutes)

About weather observations | Map of weather stations | Latest weather observations for NT | Other Formats
Station Details ID: 014308 Name: CROKER ISLAND AIRPORT Lat: -11.16 Lon: 132.48 Height: 9.2 m
Data from the previous 72 hours. | See also: Recent months for locations in Northern Territory
Date/Time
CST
Temp
°C
App
Temp
°C
Dew
Point
Rel
Hum
%
Delta-T
°C
Wind Press
QNH
hPa
Press
MSL
hPa
Rain
since 9 am
mm
Dir
 
Spd
km/h
Gust
km/h
Spd
kts
Gust
kts
22/10:00pm 28.2 31.9 24.6 81 2.5 NNE 13 17 7 9 1010.6 1010.5 -
22/09:30pm 28.3 32.0 24.5 80 2.6 NNE 13 19 7 10 1010.8 1010.7 -
22/09:00pm 27.9 32.4 23.9 79 2.8 ENE 7 13 4 7 1010.7 1010.6 -
22/08:30pm 28.2 32.3 24.0 78 2.9 ENE 9 15 5 8 1010.4 1010.3 -
22/08:00pm 28.3 32.0 23.9 77 3.0 ENE 11 19 6 10 1010.2 1010.1 -
22/07:30pm 28.5 32.0 23.6 75 3.4 ENE 11 19 6 10 1009.9 1009.8 -
22/07:00pm 28.8 31.9 23.5 73 3.6 ENE 13 20 7 11 1009.6 1009.5 -
22/06:30pm 29.6 32.3 23.5 69 4.2 NE 15 22 8 12 1009.2 1009.1 -
22/06:00pm 30.6 33.2 23.3 65 5.0 NE 15 22 8 12 1009.0 1008.9 -
22/05:30pm 31.7 33.7 23.0 60 6.0 NE 17 24 9 13 1008.6 1008.5 -
22/05:00pm 32.6 34.0 21.8 53 7.3 NE 17 26 9 14 1008.6 1008.5 -
22/04:30pm 33.4 35.0 21.5 49 8.1 NE 15 22 8 12 1008.5 1008.4 -
22/04:00pm 33.6 34.2 21.1 48 8.4 NE 19 28 10 15 1008.5 1008.4 -
22/03:30pm 34.5 35.0 20.8 44 9.2 ENE 19 26 10 14 1008.7 1008.6 -
22/03:00pm 34.8 35.3 20.0 42 9.9 ENE 17 28 9 15 1009.0 1008.9 -
22/02:30pm 34.7 35.5 21.4 46 9.0 NE 19 32 10 17 1009.4 1009.3 -
22/02:00pm 35.4 36.3 21.6 44 9.4 ENE 19 26 10 14 1009.8 1009.7 -
22/01:30pm 35.6 36.0 20.7 41 10.1 E 19 26 10 14 1010.4 1010.3 -
22/01:00pm 35.3 36.9 20.0 40 10.2 E 11 24 6 13 1010.6 1010.5 -
22/12:30pm 33.2 38.8 24.9 61 5.9 NNW 4 9 2 5 1011.0 1010.9 -
22/12:00pm 31.8 36.7 24.7 66 5.0 WNW 7 13 4 7 1011.2 1011.1 -
22/11:30am 32.0 36.9 24.6 65 5.2 WNW 7 13 4 7 1011.4 1011.3 -
22/11:00am 31.8 36.5 23.9 63 5.5 W 6 9 3 5 1011.6 1011.5 -
22/10:30am 32.0 36.4 23.8 62 5.7 W 7 9 4 5 1011.8 1011.7 -
22/10:00am 34.3 39.0 23.9 54 7.3 ESE 6 17 3 9 1011.8 1011.7 -
22/09:30am 33.3 37.4 23.3 55 6.9 E 7 17 4 9 1011.7 1011.6 -
22/09:00am 30.7 35.5 24.4 69 4.4 ENE 7 13 4 7 1011.9 1011.8 -
22/08:30am 30.6 35.0 24.5 70 4.3 ENE 9 17 5 9 1011.8 1011.7 -
22/08:00am 29.2 34.6 25.2 79 2.8 ENE 6 9 3 5 1011.8 1011.7 -
22/07:30am 28.5 36.1 27.3 93 0.9 E 2 4 1 2 1011.3 1011.2 -
22/07:00am 26.3 33.6 26.3 100 0.0 CALM 0 0 0 0 1011.1 1011.0 -
22/06:30am 24.9 30.9 24.2 96 0.5 CALM 0 0 0 0 1010.6 1010.5 -
22/06:00am 25.0 30.5 24.1 95 0.6 ENE 2 4 1 2 1010.3 1010.2 -
22/05:30am 25.3 30.2 24.3 94 0.7 E 6 7 3 4 1010.1 1010.0 -
22/05:00am 25.3 30.3 23.9 92 1.0 E 4 6 2 3 1009.8 1009.7 -
22/04:30am 25.7 30.8 24.1 91 1.1 NE 4 6 2 3 1009.4 1009.3 -
22/04:00am 25.7 30.2 23.7 89 1.4 E 6 7 3 4 1009.3 1009.2 -
22/03:30am 26.2 30.7 23.7 86 1.7 ENE 6 7 3 4 1009.2 1009.1 -
22/03:00am 27.2 32.1 24.7 86 1.7 NNE 7 11 4 6 1009.0 1008.9 -
22/02:30am 27.4 32.0 24.8 86 1.8 NNE 9 15 5 8 1009.2 1009.1 -
22/02:00am 27.4 32.0 24.7 85 1.9 NNE 9 13 5 7 1009.5 1009.4 -
22/01:30am 27.5 32.0 24.6 84 2.0 NNE 9 15 5 8 1009.7 1009.6 -
22/01:00am 27.5 31.9 24.4 83 2.1 NNE 9 15 5 8 1009.8 1009.7 -
22/12:30am 27.6 32.0 24.4 83 2.2 N 9 15 5 8 1010.0 1009.9 -
22/12:00am 27.6 32.1 24.6 84 2.1 NNE 9 15 5 8 1010.1 1010.0 -
 
Date/Time
CST
Temp
°C
App
Temp
°C
Dew
Point
Rel
Hum
%
Delta-T
°C
Wind Press
QNH
hPa
Press
MSL
hPa
Rain
since 9 am
mm
Dir
 
Spd
km/h
Gust
km/h
Spd
kts
Gust
kts
21/11:30pm 27.5 32.3 24.4 83 2.2 NNE 7 11 4 6 1010.3 1010.2 -
21/11:00pm 27.7 32.1 24.5 83 2.2 NNE 9 13 5 7 1010.1 1010.0 -
21/10:30pm 27.7 32.1 24.5 83 2.2 NNE 9 13 5 7 1010.2 1010.1 -
21/10:00pm 27.3 32.1 24.2 83 2.1 NNE 6 7 3 4 1010.0 1009.9 -
21/09:30pm 27.3 31.8 23.7 81 2.5 NE 6 7 3 4 1009.8 1009.7 -
21/09:00pm 27.4 32.1 23.4 79 2.7 ENE 4 6 2 3 1009.7 1009.6 -
21/08:30pm 27.7 32.0 23.3 77 3.0 ENE 6 6 3 3 1009.5 1009.4 -
21/08:00pm 28.2 32.8 23.8 77 3.0 NE 6 9 3 5 1009.4 1009.3 -
21/07:30pm 28.4 32.6 23.5 75 3.4 ENE 7 11 4 6 1009.4 1009.3 -
21/07:00pm 28.8 32.9 23.2 71 3.8 E 7 9 4 5 1009.2 1009.1 -
21/06:30pm 29.5 33.2 23.2 69 4.3 E 9 15 5 8 1008.9 1008.8 -
21/06:00pm 30.8 34.2 22.7 62 5.5 E 9 15 5 8 1009.0 1008.9 -
21/05:30pm 30.6 33.6 22.7 62 5.4 E 11 20 6 11 1008.9 1008.8 -
21/05:00pm 31.6 34.6 22.6 59 6.2 ENE 11 17 6 9 1008.6 1008.5 -
21/04:30pm 32.5 35.5 23.4 58 6.3 NE 13 22 7 12 1008.5 1008.4 -
21/04:00pm 33.8 36.7 23.2 54 7.3 ENE 13 26 7 14 1008.4 1008.3 -
21/03:30pm 33.4 35.0 21.5 49 8.1 NE 15 22 8 12 1008.6 1008.5 -
21/03:00pm 34.4 36.7 21.4 46 8.8 NNE 11 19 6 10 1008.9 1008.8 -
21/02:30pm 34.5 35.4 20.1 43 9.6 NE 15 26 8 14 1009.1 1009.0 -
21/02:00pm 34.7 35.7 19.5 40 10.1 NNE 13 22 7 12 1009.5 1009.4 -
21/01:30pm 35.0 35.6 19.4 40 10.3 NE 15 24 8 13 1009.7 1009.6 -
21/01:00pm 34.3 35.7 21.0 45 9.0 NNE 15 20 8 11 1010.2 1010.1 -
21/12:30pm 34.3 37.3 23.3 52 7.6 ENE 13 28 7 15 1010.6 1010.5 -
21/12:00pm 34.3 36.2 22.7 50 8.0 ENE 17 26 9 14 1011.1 1011.0 -
21/11:30am 34.2 36.4 22.6 50 8.0 NE 15 20 8 11 1011.4 1011.3 -
21/11:00am 34.0 37.6 23.1 53 7.5 NE 9 19 5 10 1011.6 1011.5 -
21/10:30am 31.2 34.7 22.8 61 5.8 NE 9 17 5 9 1011.8 1011.7 -
21/10:00am 30.9 34.3 23.3 64 5.2 ENE 11 19 6 10 1012.2 1012.1 -
21/09:30am 30.8 34.8 23.7 66 4.9 NNE 9 19 5 10 1012.3 1012.2 -
21/09:00am 30.8 34.1 23.2 64 5.2 NE 11 17 6 9 1012.2 1012.1 -
21/08:30am 30.7 35.5 24.4 69 4.4 NNE 7 13 4 7 1011.9 1011.8 -
21/08:00am 30.0 35.8 26.0 79 2.8 ENE 7 11 4 6 1011.9 1011.8 -
21/07:30am 27.4 34.7 27.4 100 0.0 ENE 4 6 2 3 1011.6 1011.5 -
21/07:00am 26.4 33.0 26.4 100 0.0 E 4 4 2 2 1011.1 1011.0 -
21/06:30am 25.6 31.7 25.6 100 0.0 E 4 4 2 2 1010.7 1010.6 -
21/06:00am 25.5 31.5 25.5 100 0.0 ENE 4 6 2 3 1010.1 1010.0 -
21/05:30am 26.2 32.3 26.2 100 0.0 ENE 6 6 3 3 1009.7 1009.6 -
21/05:00am 26.2 32.1 25.9 98 0.2 NE 6 7 3 4 1009.2 1009.1 -
21/04:30am 26.0 31.2 24.8 93 0.8 NE 6 7 3 4 1009.2 1009.1 -
21/04:00am 26.0 30.8 24.2 90 1.2 E 6 6 3 3 1009.1 1009.0 -
21/03:30am 26.8 31.9 24.6 88 1.5 ENE 6 7 3 4 1008.9 1008.8 -
21/03:00am 27.3 32.0 24.9 87 1.7 ENE 9 13 5 7 1009.0 1008.9 -
21/02:30am 27.6 32.2 25.4 88 1.5 NE 11 15 6 8 1009.1 1009.0 -
21/02:00am 27.6 32.6 25.4 88 1.5 NNE 9 17 5 9 1009.4 1009.3 -
21/01:30am 27.3 32.0 24.9 87 1.7 NE 9 11 5 6 1009.7 1009.6 -
21/01:00am 27.7 32.8 25.5 88 1.5 NE 9 15 5 8 1010.0 1009.9 -
21/12:30am 27.0 32.2 24.8 88 1.5 NE 6 9 3 5 1010.1 1010.0 -
21/12:00am 27.0 32.0 24.5 86 1.7 E 6 7 3 4 1010.5 1010.4 -
 
Date/Time
CST
Temp
°C
App
Temp
°C
Dew
Point
Rel
Hum
%
Delta-T
°C
Wind Press
QNH
hPa
Press
MSL
hPa
Rain
since 9 am
mm
Dir
 
Spd
km/h
Gust
km/h
Spd
kts
Gust
kts
20/11:30pm 27.5 32.6 24.7 85 2.0 NE 6 7 3 4 1010.5 1010.4 -
20/11:00pm 27.7 32.7 24.5 83 2.2 NE 6 9 3 5 1010.2 1010.1 -
20/10:30pm 27.8 32.6 24.2 81 2.5 NE 6 9 3 5 1010.2 1010.1 -
20/10:00pm 28.1 32.8 24.3 80 2.6 NE 7 11 4 6 1010.3 1010.2 -
20/09:30pm 28.5 32.3 24.7 80 2.7 NE 13 19 7 10 1010.0 1009.9 -
20/09:00pm 28.2 33.0 24.4 80 2.6 ENE 7 11 4 6 1010.0 1009.9 -
20/08:30pm 28.3 33.1 24.5 80 2.6 ENE 7 11 4 6 1009.7 1009.6 -
20/08:00pm 28.5 32.8 24.3 78 2.9 ENE 9 15 5 8 1009.4 1009.3 -
20/07:30pm 28.8 32.8 24.4 77 3.1 ENE 11 17 6 9 1009.0 1008.9 -
20/07:00pm 29.2 32.6 24.1 74 3.5 NE 13 19 7 10 1008.8 1008.7 -
20/06:30pm 29.9 33.2 23.8 70 4.2 ENE 13 19 7 10 1008.5 1008.4 -
20/06:00pm 31.2 34.3 23.6 64 5.3 ENE 13 19 7 10 1008.2 1008.1 -
20/05:30pm 31.9 34.9 23.4 60 5.9 ENE 13 19 7 10 1008.0 1007.9 -
20/05:00pm 32.8 35.5 22.9 56 6.8 NE 13 22 7 12 1008.1 1008.0 -
20/04:30pm 33.2 35.2 22.9 54 7.1 ENE 17 20 9 11 1008.1 1008.0 -
20/04:00pm 33.6 36.0 23.0 54 7.3 NE 15 20 8 11 1008.2 1008.1 -
20/03:30pm 32.8 34.2 22.6 55 7.0 NE 19 28 10 15 1008.6 1008.5 -
20/03:00pm 34.9 37.3 22.9 49 8.3 E 15 24 8 13 1008.7 1008.6 -
20/02:30pm 34.7 36.8 22.4 48 8.5 E 15 26 8 14 1008.8 1008.7 -
20/02:00pm 34.7 37.7 22.7 49 8.3 E 11 20 6 11 1009.2 1009.1 -
20/01:30pm 33.3 38.0 25.0 61 5.9 WNW 9 15 5 8 1009.3 1009.2 -
20/01:00pm 32.5 37.4 25.8 68 4.8 NW 11 17 6 9 1009.9 1009.8 -
20/12:30pm 31.0 35.0 24.4 68 4.6 NW 11 22 6 12 1010.4 1010.3 -
20/12:00pm 31.0 35.7 25.6 73 3.8 WNW 11 17 6 9 1011.2 1011.1 -
20/11:30am 30.3 34.6 24.2 70 4.2 WNW 9 15 5 8 1011.7 1011.6 -
20/11:00am 29.8 34.9 24.7 74 3.6 W 6 9 3 5 1012.1 1012.0 -
20/10:30am 30.4 35.6 24.8 72 3.9 W 6 7 3 4 1012.4 1012.3 -
20/10:00am 30.3 35.6 24.9 73 3.8 WNW 6 9 3 5 1012.6 1012.5 -
20/09:30am 29.2 34.0 24.1 74 3.5 WSW 6 7 3 4 1012.6 1012.5 -
20/09:00am 29.0 34.6 24.8 78 2.9 WSW 4 6 2 3 1012.5 1012.4 -
20/08:30am 28.8 34.0 24.8 79 2.8 S 6 9 3 5 1012.2 1012.1 -
20/08:00am 29.6 36.9 28.0 91 1.2 SE 6 7 3 4 1012.1 1012.0 -
20/07:30am 27.7 34.6 27.7 100 0.0 E 7 13 4 7 1011.9 1011.8 -
20/07:00am 25.6 32.4 25.6 100 0.0 CALM 0 0 0 0 1011.6 1011.5 -
20/06:30am 25.1 31.6 25.1 100 0.0 CALM 0 0 0 0 1011.1 1011.0 -
20/06:00am 25.0 31.5 25.0 100 0.0 CALM 0 0 0 0 1010.8 1010.7 -
20/05:30am 25.1 31.6 25.1 100 0.0 CALM 0 0 0 0 1010.4 1010.3 -
20/05:00am 25.7 31.8 25.7 100 0.0 E 4 6 2 3 1010.3 1010.2 -
20/04:30am 25.8 32.4 25.8 100 0.0 ENE 2 4 1 2 1010.3 1010.2 -
20/04:00am 25.4 31.3 25.4 100 0.0 E 4 4 2 2 1010.2 1010.1 -
20/03:30am 24.3 29.2 24.3 100 0.0 E 6 7 3 4 1009.8 1009.7 -
20/03:00am 24.3 29.0 24.3 100 0.0 E 7 7 4 4 1009.6 1009.5 -
20/02:30am 24.2 28.9 24.0 99 0.1 E 6 7 3 4 1009.5 1009.4 -
20/02:00am 24.3 28.7 23.8 97 0.3 E 7 7 4 4 1009.6 1009.5 -
20/01:30am 24.9 30.0 24.6 98 0.2 NE 6 7 3 4 1009.6 1009.5 -
20/01:00am 24.9 30.3 23.9 94 0.7 NE 2 4 1 2 1009.6 1009.5 -
20/12:30am 25.1 30.1 23.2 89 1.3 NE 2 4 1 2 1009.8 1009.7 -
20/12:00am 26.0 31.5 24.0 89 1.4 NE 2 4 1 2 1010.1 1010.0 -
 
Date/Time
CST
Temp
°C
App
Temp
°C
Dew
Point
Rel
Hum
%
Delta-T
°C
Wind Press
QNH
hPa
Press
MSL
hPa
Rain
since 9 am
mm
Dir
 
Spd
km/h
Gust
km/h
Spd
kts
Gust
kts
19/11:30pm 26.9 32.5 24.9 89 1.4 NNE 4 6 2 3 1010.3 1010.2 -
19/11:00pm 26.9 31.8 24.4 86 1.7 NNE 6 9 3 5 1010.4 1010.3 -
19/10:30pm 27.2 32.2 24.5 85 1.9 N 6 9 3 5 1010.3 1010.2 -

Other Formats:

Comma delimited format used in spreadsheet applications
http://www.bom.gov.au/fwo/IDD60801/IDD60801.94108.axf

JavaScript Object Notation format (JSON) in row-major order
http://www.bom.gov.au/fwo/IDD60801/IDD60801.94108.json